^^
Datos históricos de la estación: Murcia-Puente Tocinos
Diario Informe para Octubre 18, 2020 Unidades:  Ambas    Ingés   Métrico
Diario Semanal Mensual Anual
  Máxima: Mínima: Promedio:
Temperatura: 61.3 °F /  16.3 °C 52 °F /  11.1 °C 56.7 °F /  13.7 °C
Punto de rocio: 47.3 °F /  8.5 °C 40.6 °F /  4.8 °C 44.2 °F /  6.8 °C
Humedad: 72% 46.7% 63%
Velocidad viento: 5.2mph /  8.4km/h - 3.1mph /  5km/h
Racha viento: 8.1mph /  13km/h - -
Viento- - Sur
Presión: 30.1 in /  1020.8 hPa 30.1 in /  1017.8 hPa -
Precipitación: 0 in /  0.0 mm    
 
 
Tabla de datos para Octubre 18, 2020
Hora Temperatura Punto de rocio Presión Viento Velocidad viento Racha viento Humedad Intensidad lluvia(por hora) Nubes
00:04 61.3 °F /  16.3 °C 44.6 °F /  7 °C 30.1in /  1017.8hPa Este 1.2mph /  1.9km/h 2.3mph /  3.7km/h 54% 0in /  0.0mm
00:09 61.3 °F /  16.3 °C 44.4 °F /  6.9 °C 30.1in /  1017.8hPa Calm   3.5mph /  5.6km/h 54% 0in /  0.0mm
00:14 61.2 °F /  16.2 °C 44.6 °F /  7 °C 30.1in /  1017.8hPa Este 0.2mph /  0.3km/h 3.5mph /  5.6km/h 54.4% 0in /  0.0mm
00:19 61.2 °F /  16.2 °C 44.8 °F /  7.1 °C 30.1in /  1017.8hPa SE 1.4mph /  2.2km/h 3.6mph /  5.8km/h 55% 0in /  0.0mm
00:24 61 °F /  16.1 °C 44.2 °F /  6.8 °C 30.1in /  1017.9hPa SE 1.4mph /  2.3km/h 4mph /  6.4km/h 54.4% 0in /  0.0mm
00:29 60.8 °F /  16 °C 44.1 °F /  6.7 °C 30.1in /  1017.9hPa SSE 2mph /  3.2km/h 4.6mph /  7.4km/h 54.1% 0in /  0.0mm
00:34 60.6 °F /  15.9 °C 44.1 °F /  6.7 °C 30.1in /  1017.9hPa SSE 2.1mph /  3.3km/h 3.6mph /  5.8km/h 54.3% 0in /  0.0mm
00:39 60.6 °F /  15.9 °C 43.7 °F /  6.5 °C 30.1in /  1017.9hPa SSE 2.4mph /  3.9km/h 4.6mph /  7.4km/h 53.7% 0in /  0.0mm
00:44 61 °F /  16.1 °C 43.9 °F /  6.6 °C 30.1in /  1017.9hPa SSE 2.5mph /  4km/h 5mph /  8km/h 53.5% 0in /  0.0mm
00:49 61.2 °F /  16.2 °C 44.4 °F /  6.9 °C 30.1in /  1017.9hPa SE 3.1mph /  5km/h 5mph /  8km/h 54% 0in /  0.0mm
00:54 61.3 °F /  16.3 °C 44.4 °F /  6.9 °C 30.1in /  1017.9hPa SE 3mph /  4.9km/h 5mph /  8km/h 54% 0in /  0.0mm
00:59 61.3 °F /  16.3 °C 44.4 °F /  6.9 °C 30.1in /  1017.9hPa SE 2.9mph /  4.7km/h 5mph /  8km/h 54% 0in /  0.0mm
01:04 61.3 °F /  16.3 °C 44.8 °F /  7.1 °C 30.1in /  1017.9hPa SE 2.7mph /  4.4km/h 3mph /  4.8km/h 54.6% 0in /  0.0mm
01:09 61.2 °F /  16.2 °C 45 °F /  7.2 °C 30.1in /  1018.0hPa SE 1.4mph /  2.3km/h 2mph /  3.2km/h 55% 0in /  0.0mm
01:14 61.2 °F /  16.2 °C 44.8 °F /  7.1 °C 30.1in /  1018.0hPa SE 1.3mph /  2.1km/h   55.1% 0in /  0.0mm
01:19 60.8 °F /  16 °C 45.1 °F /  7.3 °C 30.1in /  1018.0hPa Calm   2.4mph /  3.9km/h 56.4% 0in /  0.0mm
01:24 60.4 °F /  15.8 °C 44.8 °F /  7.1 °C 30.1in /  1018.0hPa Calm   2.3mph /  3.7km/h 56.3% 0in /  0.0mm
01:29 60.1 °F /  15.6 °C 44.6 °F /  7 °C 30.1in /  1017.9hPa Calm   2.3mph /  3.7km/h 56.4% 0in /  0.0mm
01:34 59.7 °F /  15.4 °C 44.6 °F /  7 °C 30.1in /  1017.9hPa Calm   2.4mph /  3.9km/h 57.3% 0in /  0.0mm
01:39 59.5 °F /  15.3 °C 44.8 °F /  7.1 °C 30.1in /  1017.9hPa Calm   2.3mph /  3.7km/h 58% 0in /  0.0mm
01:44 59.4 °F /  15.2 °C 44.8 °F /  7.1 °C 30.1in /  1017.9hPa Calm   2.4mph /  3.9km/h 58.5% 0in /  0.0mm
01:49 59.2 °F /  15.1 °C 45.5 °F /  7.5 °C 30.1in /  1017.9hPa Calm   3.1mph /  5km/h 60.7% 0in /  0.0mm
01:54 59.2 °F /  15.1 °C 46.4 °F /  8 °C 30.1in /  1018.0hPa SSE 0.2mph /  0.4km/h 4.6mph /  7.4km/h 62.3% 0in /  0.0mm
01:59 59 °F /  15 °C 46.2 °F /  7.9 °C 30.1in /  1018.0hPa SSE 2.4mph /  3.8km/h 5mph /  8km/h 62.5% 0in /  0.0mm
02:04 58.8 °F /  14.9 °C 46.8 °F /  8.2 °C 30.1in /  1018.0hPa Sur 2.5mph /  4km/h 5.8mph /  9.3km/h 64% 0in /  0.0mm
02:09 58.8 °F /  14.9 °C 47.1 °F /  8.4 °C 30.1in /  1018.0hPa SSE 2.9mph /  4.6km/h 6mph /  9.7km/h 65% 0in /  0.0mm
02:14 58.6 °F /  14.8 °C 46.9 °F /  8.3 °C 30.1in /  1017.9hPa SSE 2.9mph /  4.7km/h 5.2mph /  8.4km/h 65% 0in /  0.0mm
02:19 58.6 °F /  14.8 °C 46.9 °F /  8.3 °C 30.1in /  1017.9hPa Sur 3.1mph /  5km/h 5.2mph /  8.4km/h 65% 0in /  0.0mm
02:24 58.6 °F /  14.8 °C 47.3 °F /  8.5 °C 30.1in /  1017.9hPa SSO 3.1mph /  5km/h 5.2mph /  8.4km/h 66% 0in /  0.0mm
02:29 58.6 °F /  14.8 °C 47.3 °F /  8.5 °C 30.1in /  1017.9hPa SSO 3.1mph /  5km/h 5mph /  8km/h 66% 0in /  0.0mm
02:34 58.6 °F /  14.8 °C 47.3 °F /  8.5 °C 30.1in /  1017.9hPa SSO 2.9mph /  4.7km/h 5mph /  8km/h 66% 0in /  0.0mm
02:39 58.6 °F /  14.8 °C 47.3 °F /  8.5 °C 30.1in /  1018.0hPa SSO 2mph /  3.2km/h 5mph /  8km/h 66% 0in /  0.0mm
02:44 58.6 °F /  14.8 °C 47.3 °F /  8.5 °C 30.1in /  1018.0hPa SSO 2.1mph /  3.4km/h 5mph /  8km/h 66% 0in /  0.0mm
02:49 58.6 °F /  14.8 °C 47.3 °F /  8.5 °C 30.1in /  1018.0hPa SO 2.9mph /  4.7km/h 6.2mph /  10km/h 66% 0in /  0.0mm
02:54 58.6 °F /  14.8 °C 47.3 °F /  8.5 °C 30.1in /  1018.1hPa SO 2.9mph /  4.7km/h 6mph /  9.7km/h 66% 0in /  0.0mm
02:59 58.5 °F /  14.7 °C 47.1 °F /  8.4 °C 30.1in /  1018.1hPa SO 3.1mph /  5km/h 5mph /  8km/h 66% 0in /  0.0mm
03:04 58.5 °F /  14.7 °C 47.1 °F /  8.4 °C 30.1in /  1018.1hPa SO 3.1mph /  5km/h 6.9mph /  11.1km/h 66% 0in /  0.0mm
03:09 58.3 °F /  14.6 °C 46.9 °F /  8.3 °C 30.1in /  1018.1hPa SSO 3.1mph /  5km/h 7mph /  11.3km/h 66% 0in /  0.0mm
03:14 58.3 °F /  14.6 °C 46.9 °F /  8.3 °C 30.1in /  1018.1hPa SSO 3.2mph /  5.1km/h 6.9mph /  11.1km/h 66% 0in /  0.0mm
03:19 58.3 °F /  14.6 °C 46.9 °F /  8.3 °C 30.1in /  1018.1hPa Sur 3.6mph /  5.8km/h 7.4mph /  11.9km/h 66% 0in /  0.0mm
03:24 57.9 °F /  14.4 °C 46.6 °F /  8.1 °C 30.1in /  1018.1hPa SSE 3.6mph /  5.8km/h 7mph /  11.3km/h 65.7% 0in /  0.0mm
03:29 57.7 °F /  14.3 °C 46.4 °F /  8 °C 30.1in /  1018.1hPa SSE 4mph /  6.4km/h 6mph /  9.7km/h 66% 0in /  0.0mm
03:34 57.6 °F /  14.2 °C 46.4 °F /  8 °C 30.1in /  1018.1hPa Sur 4mph /  6.5km/h 8.1mph /  13km/h 66.2% 0in /  0.0mm
03:39 57.2 °F /  14 °C 46.2 °F /  7.9 °C 30.1in /  1018.2hPa Sur 4mph /  6.4km/h 7.4mph /  11.9km/h 67% 0in /  0.0mm
03:44 57 °F /  13.9 °C 46.2 °F /  7.9 °C 30.1in /  1018.2hPa Sur 4.1mph /  6.6km/h 7mph /  11.3km/h 67% 0in /  0.0mm
03:49 57 °F /  13.9 °C 46.2 °F /  7.9 °C 30.1in /  1018.2hPa Sur 4.7mph /  7.6km/h 7mph /  11.3km/h 67.1% 0in /  0.0mm
03:54 57 °F /  13.9 °C 46.2 °F /  7.9 °C 30.1in /  1018.2hPa Sur 4.7mph /  7.5km/h 7.4mph /  11.9km/h 67% 0in /  0.0mm
03:59 57 °F /  13.9 °C 46.2 °F /  7.9 °C 30.1in /  1018.0hPa SSO 4.3mph /  6.9km/h 7mph /  11.3km/h 67% 0in /  0.0mm
04:04 57.2 °F /  14 °C 46 °F /  7.8 °C 30.1in /  1018.0hPa SSO 4.3mph /  6.9km/h 6mph /  9.7km/h 66.4% 0in /  0.0mm
04:09 57.2 °F /  14 °C 45.9 °F /  7.7 °C 30.1in /  1018.1hPa SSO 4mph /  6.5km/h 6.9mph /  11.1km/h 65.9% 0in /  0.0mm
04:14 57.2 °F /  14 °C 45.5 °F /  7.5 °C 30.1in /  1018.1hPa Sur 4mph /  6.5km/h 7mph /  11.3km/h 65% 0in /  0.0mm
04:19 57 °F /  13.9 °C 45.3 °F /  7.4 °C 30.1in /  1018.1hPa SSO 4.3mph /  6.9km/h 7mph /  11.3km/h 65% 0in /  0.0mm
04:24 57 °F /  13.9 °C 45.3 °F /  7.4 °C 30.1in /  1018.1hPa SSO 4.3mph /  6.9km/h 7mph /  11.3km/h 65% 0in /  0.0mm
04:29 56.8 °F /  13.8 °C 45.3 °F /  7.4 °C 30.1in /  1018.1hPa SSO 4.3mph /  6.9km/h 7mph /  11.3km/h 65.1% 0in /  0.0mm
04:34 56.8 °F /  13.8 °C 45.3 °F /  7.4 °C 30.1in /  1018.1hPa SO 4.3mph /  6.9km/h 7mph /  11.3km/h 65.4% 0in /  0.0mm
04:39 56.7 °F /  13.7 °C 45.1 °F /  7.3 °C 30.1in /  1018.1hPa Sur 4mph /  6.4km/h 5.4mph /  8.7km/h 65% 0in /  0.0mm
04:44 56.7 °F /  13.7 °C 45 °F /  7.2 °C 30.1in /  1018.1hPa Sur 4mph /  6.4km/h 6mph /  9.7km/h 65% 0in /  0.0mm
04:49 56.7 °F /  13.7 °C 45 °F /  7.2 °C 30.1in /  1018.1hPa SSE 3.6mph /  5.8km/h 6mph /  9.7km/h 65% 0in /  0.0mm
04:54 56.5 °F /  13.6 °C 45 °F /  7.2 °C 30.1in /  1018.1hPa SSE 3.6mph /  5.8km/h 5.9mph /  9.5km/h 65.2% 0in /  0.0mm
04:59 56.1 °F /  13.4 °C 45 °F /  7.2 °C 30.1in /  1018.0hPa SSE 3.6mph /  5.8km/h 6mph /  9.7km/h 66% 0in /  0.0mm
05:04 55.9 °F /  13.3 °C 44.8 °F /  7.1 °C 30.1in /  1018.0hPa Sur 3.6mph /  5.8km/h 5.9mph /  9.5km/h 66% 0in /  0.0mm
05:09 55.9 °F /  13.3 °C 44.8 °F /  7.1 °C 30.1in /  1018.0hPa SO 3.6mph /  5.8km/h 6mph /  9.7km/h 66% 0in /  0.0mm
05:14 55.9 °F /  13.3 °C 44.8 °F /  7.1 °C 30.1in /  1018.0hPa SO 3.6mph /  5.8km/h 6.4mph /  10.3km/h 66% 0in /  0.0mm
05:19 56.1 °F /  13.4 °C 45 °F /  7.2 °C 30.1in /  1018.0hPa SO 3.6mph /  5.8km/h 7.4mph /  11.9km/h 66% 0in /  0.0mm
05:24 56.1 °F /  13.4 °C 45 °F /  7.2 °C 30.1in /  1018.0hPa SO 3.7mph /  5.9km/h 7mph /  11.3km/h 66% 0in /  0.0mm
05:29 55.9 °F /  13.3 °C 44.8 °F /  7.1 °C 30.1in /  1018.0hPa SO 4mph /  6.4km/h 7mph /  11.3km/h 66% 0in /  0.0mm
05:34 55.9 °F /  13.3 °C 44.8 °F /  7.1 °C 30.1in /  1018.0hPa SSO 3.9mph /  6.3km/h 6.2mph /  10km/h 66% 0in /  0.0mm
05:39 55.8 °F /  13.2 °C 44.6 °F /  7 °C 30.1in /  1018.1hPa SSO 3.1mph /  5km/h 5.8mph /  9.3km/h 66% 0in /  0.0mm
05:44 55.8 °F /  13.2 °C 44.6 °F /  7 °C 30.1in /  1018.1hPa SO 3mph /  4.9km/h 5mph /  8km/h 66% 0in /  0.0mm
05:49 55.8 °F /  13.2 °C 44.4 °F /  6.9 °C 30.1in /  1018.1hPa SO 2.4mph /  3.9km/h 5.2mph /  8.4km/h 66% 0in /  0.0mm
05:54 55.6 °F /  13.1 °C 44.2 °F /  6.8 °C 30.1in /  1018.1hPa SO 2.4mph /  3.9km/h 6.2mph /  10km/h 65.8% 0in /  0.0mm
05:59 55.6 °F /  13.1 °C 44.1 °F /  6.7 °C 30.1in /  1018.1hPa SO 3.1mph /  5km/h 6mph /  9.7km/h 65% 0in /  0.0mm
06:04 55.6 °F /  13.1 °C 44.1 °F /  6.7 °C 30.1in /  1018.1hPa SSO 3mph /  4.9km/h 5.2mph /  8.4km/h 65% 0in /  0.0mm
06:09 55.6 °F /  13.1 °C 44.2 °F /  6.8 °C 30.1in /  1018.1hPa Sur 2.9mph /  4.7km/h 5mph /  8km/h 65.9% 0in /  0.0mm
06:14 55 °F /  12.8 °C 44.2 °F /  6.8 °C 30.1in /  1018.1hPa SSE 2.9mph /  4.6km/h 5mph /  8km/h 66.9% 0in /  0.0mm
06:19 54.9 °F /  12.7 °C 44.4 °F /  6.9 °C 30.1in /  1018.1hPa SSE 2.4mph /  3.9km/h 5mph /  8km/h 67.9% 0in /  0.0mm
06:24 54.3 °F /  12.4 °C 44.1 °F /  6.7 °C 30.1in /  1018.2hPa SSE 2.4mph /  3.9km/h 5mph /  8km/h 68.1% 0in /  0.0mm
06:29 54.1 °F /  12.3 °C 44.2 °F /  6.8 °C 30.1in /  1018.2hPa SSE 2.9mph /  4.7km/h 5mph /  8km/h 69% 0in /  0.0mm
06:34 54.1 °F /  12.3 °C 44.1 °F /  6.7 °C 30.1in /  1018.2hPa SSE 2.8mph /  4.5km/h 4mph /  6.4km/h 69% 0in /  0.0mm
06:39 54 °F /  12.2 °C 44.1 °F /  6.7 °C 30.1in /  1018.3hPa SSE 2.4mph /  3.9km/h 4.6mph /  7.4km/h 69.4% 0in /  0.0mm
06:44 53.4 °F /  11.9 °C 43.9 °F /  6.6 °C 30.1in /  1018.3hPa SE 2.5mph /  4km/h 5mph /  8km/h 70.1% 0in /  0.0mm
06:49 53.1 °F /  11.7 °C 43.9 °F /  6.6 °C 30.1in /  1018.3hPa SE 2.9mph /  4.7km/h 5mph /  8km/h 71% 0in /  0.0mm
06:54 52.9 °F /  11.6 °C 43.9 °F /  6.6 °C 30.1in /  1018.5hPa SSE 3mph /  4.8km/h 5.4mph /  8.7km/h 71.8% 0in /  0.0mm
06:59 52.5 °F /  11.4 °C 43.9 °F /  6.6 °C 30.1in /  1018.5hPa SSE 3.6mph /  5.8km/h 6.2mph /  10km/h 72% 0in /  0.0mm
07:04 52.5 °F /  11.4 °C 43.5 °F /  6.4 °C 30.1in /  1018.5hPa SSE 3.7mph /  5.9km/h 6mph /  9.7km/h 71.1% 0in /  0.0mm
07:09 52.7 °F /  11.5 °C 43.5 °F /  6.4 °C 30.1in /  1018.5hPa SSE 4.3mph /  6.9km/h 6.2mph /  10km/h 71% 0in /  0.0mm
07:14 52.7 °F /  11.5 °C 43.5 °F /  6.4 °C 30.1in /  1018.5hPa SSE 4.3mph /  6.9km/h 6.9mph /  11.1km/h 71% 0in /  0.0mm
07:19 52.3 °F /  11.3 °C 43.3 °F /  6.3 °C 30.1in /  1018.5hPa SSE 4mph /  6.5km/h 7mph /  11.3km/h 71% 0in /  0.0mm
07:24 52.2 °F /  11.2 °C 43.2 °F /  6.2 °C 30.1in /  1018.6hPa SSE 4.1mph /  6.6km/h 7mph /  11.3km/h 71.6% 0in /  0.0mm
07:29 52 °F /  11.1 °C 43.2 °F /  6.2 °C 30.1in /  1018.6hPa SSE 4.7mph /  7.6km/h 7mph /  11.3km/h 72% 0in /  0.0mm
07:34 52 °F /  11.1 °C 43.2 °F /  6.2 °C 30.1in /  1018.6hPa SSE 4.7mph /  7.6km/h 8.1mph /  13km/h 72% 0in /  0.0mm
07:39 52 °F /  11.1 °C 43 °F /  6.1 °C 30.1in /  1018.7hPa SSE 4.7mph /  7.6km/h 8mph /  12.9km/h 71.1% 0in /  0.0mm
07:44 52 °F /  11.1 °C 42.8 °F /  6 °C 30.1in /  1018.7hPa SSE 4.8mph /  7.7km/h 8.1mph /  13km/h 70.8% 0in /  0.0mm
07:49 52.2 °F /  11.2 °C 42.6 °F /  5.9 °C 30.1in /  1018.7hPa SSE 5.2mph /  8.4km/h 8.1mph /  13km/h 70% 0in /  0.0mm
07:54 52.2 °F /  11.2 °C 42.4 °F /  5.8 °C 30.1in /  1018.8hPa SSE 5.2mph /  8.4km/h 8.1mph /  13km/h 69.4% 0in /  0.0mm
07:59 52.3 °F /  11.3 °C 42.4 °F /  5.8 °C 30.1in /  1018.8hPa Sur 5.2mph /  8.4km/h 6.9mph /  11.1km/h 69% 0in /  0.0mm
08:04 52.3 °F /  11.3 °C 42.4 °F /  5.8 °C 30.1in /  1018.8hPa Sur 5.2mph /  8.3km/h 7mph /  11.3km/h 69% 0in /  0.0mm
08:09 52.3 °F /  11.3 °C 42.1 °F /  5.6 °C 30.1in /  1018.9hPa Sur 4.7mph /  7.6km/h 5.9mph /  9.5km/h 68.1% 0in /  0.0mm
08:14 52.3 °F /  11.3 °C 42.3 °F /  5.7 °C 30.1in /  1018.9hPa SSO 4.7mph /  7.5km/h 6.9mph /  11.1km/h 68% 0in /  0.0mm
08:19 52.5 °F /  11.4 °C 41.9 °F /  5.5 °C 30.1in /  1018.9hPa SSO 4.3mph /  6.9km/h 7mph /  11.3km/h 67.1% 0in /  0.0mm
08:24 52.5 °F /  11.4 °C 41.7 °F /  5.4 °C 30.1in /  1019.0hPa SSO 4.2mph /  6.7km/h 6mph /  9.7km/h 66.6% 0in /  0.0mm
08:29 52.9 °F /  11.6 °C 41.7 °F /  5.4 °C 30.1in /  1019.0hPa Sur 3.1mph /  5km/h 6mph /  9.7km/h 66% 0in /  0.0mm
08:34 53.1 °F /  11.7 °C 41.7 °F /  5.4 °C 30.1in /  1019.0hPa Sur 3.2mph /  5.1km/h 5.2mph /  8.4km/h 65.3% 0in /  0.0mm
08:39 53.1 °F /  11.7 °C 41.5 °F /  5.3 °C 30.1in /  1019.1hPa Sur 3.6mph /  5.8km/h 5.8mph /  9.3km/h 65% 0in /  0.0mm
08:44 53.1 °F /  11.7 °C 41.5 °F /  5.3 °C 30.1in /  1019.1hPa Sur 3.5mph /  5.7km/h 6mph /  9.7km/h 65% 0in /  0.0mm
08:49 53.2 °F /  11.8 °C 41.7 °F /  5.4 °C 30.1in /  1019.1hPa Sur 3.1mph /  5km/h 5.4mph /  8.7km/h 65% 0in /  0.0mm
08:54 53.2 °F /  11.8 °C 41.4 °F /  5.2 °C 30.1in /  1019.4hPa SSE 3.2mph /  5.2km/h 6.9mph /  11.1km/h 64% 0in /  0.0mm
08:59 53.4 °F /  11.9 °C 41.5 °F /  5.3 °C 30.1in /  1019.4hPa SE 4mph /  6.4km/h 7mph /  11.3km/h 64.1% 0in /  0.0mm
09:04 53.4 °F /  11.9 °C 41.9 °F /  5.5 °C 30.1in /  1019.4hPa SE 4mph /  6.4km/h 6mph /  9.7km/h 64.9% 0in /  0.0mm
09:09 53.4 °F /  11.9 °C 41.9 °F /  5.5 °C 30.1in /  1019.6hPa SE 3.6mph /  5.8km/h 6mph /  9.7km/h 65% 0in /  0.0mm
09:14 53.4 °F /  11.9 °C 41.9 °F /  5.5 °C 30.1in /  1019.6hPa SE 3.6mph /  5.8km/h 5.9mph /  9.5km/h 65.1% 0in /  0.0mm
09:19 53.4 °F /  11.9 °C 42.1 °F /  5.6 °C 30.1in /  1019.6hPa SSE 3.6mph /  5.8km/h 6mph /  9.7km/h 65.3% 0in /  0.0mm
09:24 53.6 °F /  12 °C 42.1 °F /  5.6 °C 30.1in /  1020.0hPa SSE 3.7mph /  5.9km/h 6mph /  9.7km/h 65% 0in /  0.0mm
09:29 54 °F /  12.2 °C 42.3 °F /  5.7 °C 30.1in /  1020.0hPa SSE 4mph /  6.4km/h 6mph /  9.7km/h 64.5% 0in /  0.0mm
09:34 54.3 °F /  12.4 °C 42.1 °F /  5.6 °C 30.1in /  1020.0hPa SSE 3.9mph /  6.2km/h 5mph /  8km/h 63.2% 0in /  0.0mm
09:39 54.9 °F /  12.7 °C 42.1 °F /  5.6 °C 30.1in /  1020.1hPa SSE 2.9mph /  4.7km/h 5.9mph /  9.5km/h 61.8% 0in /  0.0mm
09:44 55.4 °F /  13 °C 41.9 °F /  5.5 °C 30.1in /  1020.1hPa Sur 3mph /  4.8km/h 6mph /  9.7km/h 60.6% 0in /  0.0mm
09:49 55.8 °F /  13.2 °C 42.1 °F /  5.6 °C 30.1in /  1020.1hPa Sur 3.6mph /  5.8km/h 6mph /  9.7km/h 59.8% 0in /  0.0mm
09:54 56.3 °F /  13.5 °C 42.1 °F /  5.6 °C 30.1in /  1020.3hPa SE 3.5mph /  5.7km/h 5.8mph /  9.3km/h 59% 0in /  0.0mm
09:59 56.8 °F /  13.8 °C 42.4 °F /  5.8 °C 30.1in /  1020.3hPa SSE 3.1mph /  5km/h 6mph /  9.7km/h 58.5% 0in /  0.0mm
10:04 57 °F /  13.9 °C 42.1 °F /  5.6 °C 30.1in /  1020.3hPa SSE 3.1mph /  5km/h 5mph /  8km/h 57.2% 0in /  0.0mm
10:09 57.4 °F /  14.1 °C 42.3 °F /  5.7 °C 30.1in /  1020.5hPa SSE 3.1mph /  5km/h 5.9mph /  9.5km/h 56.9% 0in /  0.0mm
10:14 57.6 °F /  14.2 °C 42.4 °F /  5.8 °C 30.1in /  1020.5hPa SSE 3.2mph /  5.1km/h 6mph /  9.7km/h 57% 0in /  0.0mm
10:19 57.9 °F /  14.4 °C 42.4 °F /  5.8 °C 30.1in /  1020.5hPa Sur 3.6mph /  5.8km/h 5mph /  8km/h 56.2% 0in /  0.0mm
10:24 58.5 °F /  14.7 °C 42.3 °F /  5.7 °C 30.1in /  1020.6hPa Sur 3.5mph /  5.7km/h 5.2mph /  8.4km/h 54.9% 0in /  0.0mm
10:29 58.6 °F /  14.8 °C 41.7 °F /  5.4 °C 30.1in /  1020.6hPa SO 3.1mph /  5km/h 5.8mph /  9.3km/h 53.4% 0in /  0.0mm
10:34 59.2 °F /  15.1 °C 41.9 °F /  5.5 °C 30.1in /  1020.6hPa Sur 3mph /  4.9km/h 6mph /  9.7km/h 52.7% 0in /  0.0mm
10:39 59.7 °F /  15.4 °C 41.9 °F /  5.5 °C 30.1in /  1020.8hPa SSO 2.9mph /  4.7km/h 5mph /  8km/h 51.5% 0in /  0.0mm
10:44 60.3 °F /  15.7 °C 41.2 °F /  5.1 °C 30.1in /  1020.8hPa Sur 2.9mph /  4.6km/h 4.6mph /  7.4km/h 49.4% 0in /  0.0mm
10:49 60.8 °F /  16 °C 40.6 °F /  4.8 °C 30.1in /  1020.8hPa SSO 2.4mph /  3.9km/h 5mph /  8km/h 47.3% 0in /  0.0mm
10:54 61.3 °F /  16.3 °C 40.8 °F /  4.9 °C 30.1in /  1020.8hPa SSO 2.4mph /  3.9km/h 5mph /  8km/h 46.7% 0in /  0.0mm
Murcia-Puente Tocinos, España
Compliments of Weather Underground - 2 mb

La estación de MeteoMurcia.com, publica sus datos en los siguientes proyectos:

Weather Underground PWS IMURCIAP2 Meteoclimatic www.awekas.at

W3Counter
Web Analytics